DLH1DG EDLW-EDDH
Flight info
| Callsign | DLH1DG |
|---|---|
| Flight time | 0h 52m |
| Altitude | 23000 |
| Route | OSN2U OSN DCT BASUM DCT MUBZI DCT RIBSO RIBSO3P |
| Aircraft | A320/M-SDE3FGHIRWY/LB1 |
Departure
| Time | 2026-05-04 15:27 |
|---|---|
| Airport | Dortmund Airport (EDLW) |
Arrival
| Time | 2026-05-04 16:19 |
|---|---|
| Airport | Hamburg Helmut Schmidt Airport (EDDH) |
| Time | Latitude | Longitude | Altitude | Speed | Heading |
|---|---|---|---|---|---|
| 2026-05-04 14:57 | 51.51469 | 7.61126 | 436 ft | 0 kts | 145° |
| 2026-05-04 14:58 | 51.51468 | 7.61126 | 436 ft | 0 kts | 146° |
| 2026-05-04 15:18 | 51.51479 | 7.61114 | 436 ft | 3 kts | 146° |
| 2026-05-04 15:18 | 51.51494 | 7.61098 | 435 ft | 3 kts | 146° |
| 2026-05-04 15:19 | 51.51517 | 7.61059 | 431 ft | 2 kts | 64° |
| 2026-05-04 15:19 | 51.51511 | 7.61044 | 426 ft | 0 kts | 18° |
| 2026-05-04 15:21 | 51.51513 | 7.61045 | 428 ft | 2 kts | 18° |
| 2026-05-04 15:21 | 51.51569 | 7.61036 | 428 ft | 3 kts | 355° |
| 2026-05-04 15:21 | 51.51616 | 7.61155 | 422 ft | 18 kts | 60° |
| 2026-05-04 15:22 | 51.51683 | 7.61338 | 422 ft | 21 kts | 58° |
| 2026-05-04 15:22 | 51.51764 | 7.61557 | 416 ft | 25 kts | 58° |
| 2026-05-04 15:22 | 51.51930 | 7.62026 | 413 ft | 26 kts | 59° |
| 2026-05-04 15:23 | 51.52002 | 7.62229 | 412 ft | 21 kts | 59° |
| 2026-05-04 15:23 | 51.52053 | 7.62369 | 410 ft | 23 kts | 59° |
| 2026-05-04 15:23 | 51.52096 | 7.62502 | 405 ft | 5 kts | 64° |
| 2026-05-04 15:23 | 51.52118 | 7.62573 | 406 ft | 12 kts | 59° |
| 2026-05-04 15:24 | 51.52142 | 7.62640 | 404 ft | 0 kts | 60° |
| 2026-05-04 15:24 | 51.52146 | 7.62653 | 404 ft | 0 kts | 62° |
| 2026-05-04 15:25 | 51.52151 | 7.62665 | 403 ft | 2 kts | 60° |
| 2026-05-04 15:25 | 51.52163 | 7.62698 | 403 ft | 7 kts | 59° |
| 2026-05-04 15:26 | 51.52320 | 7.62629 | 403 ft | 22 kts | 264° |
| 2026-05-04 15:26 | 51.52199 | 7.62273 | 411 ft | 64 kts | 242° |
| 2026-05-04 15:26 | 51.51418 | 7.59873 | 885 ft | 144 kts | 245° |
| 2026-05-04 15:27 | 51.50999 | 7.58411 | 1646 ft | 142 kts | 244° |
| 2026-05-04 15:27 | 51.50221 | 7.55583 | 2824 ft | 150 kts | 243° |
| 2026-05-04 15:28 | 51.49165 | 7.52297 | 3532 ft | 182 kts | 235° |
| 2026-05-04 15:28 | 51.48419 | 7.50511 | 3800 ft | 204 kts | 234° |
| 2026-05-04 15:28 | 51.47698 | 7.45706 | 4577 ft | 260 kts | 286° |
| 2026-05-04 15:29 | 51.48678 | 7.43213 | 5279 ft | 274 kts | 317° |
| 2026-05-04 15:30 | 51.56012 | 7.39404 | 8965 ft | 294 kts | 11° |
| 2026-05-04 15:30 | 51.61301 | 7.45070 | 10646 ft | 338 kts | 41° |
| 2026-05-04 15:31 | 51.65012 | 7.50330 | 11623 ft | 365 kts | 41° |
| 2026-05-04 15:31 | 51.66934 | 7.53053 | 12363 ft | 370 kts | 41° |
| 2026-05-04 15:32 | 51.72823 | 7.61342 | 14488 ft | 383 kts | 41° |
| 2026-05-04 15:32 | 51.76888 | 7.67040 | 15751 ft | 391 kts | 41° |
| 2026-05-04 15:33 | 51.81042 | 7.72885 | 16973 ft | 401 kts | 41° |
| 2026-05-04 15:34 | 51.87457 | 7.81952 | 18630 ft | 416 kts | 41° |
| 2026-05-04 15:34 | 51.89644 | 7.85053 | 19089 ft | 420 kts | 41° |
| 2026-05-04 15:34 | 51.94081 | 7.91360 | 20088 ft | 428 kts | 41° |
| 2026-05-04 15:35 | 51.98601 | 7.97790 | 21143 ft | 436 kts | 41° |
| 2026-05-04 15:35 | 52.00892 | 8.01056 | 21691 ft | 440 kts | 41° |
| 2026-05-04 15:35 | 52.03202 | 8.04353 | 22161 ft | 445 kts | 41° |
| 2026-05-04 15:36 | 52.07878 | 8.11059 | 22911 ft | 452 kts | 41° |
| 2026-05-04 15:36 | 52.10255 | 8.14474 | 22979 ft | 462 kts | 41° |
| 2026-05-04 15:36 | 52.12660 | 8.17929 | 22961 ft | 469 kts | 41° |
| 2026-05-04 15:37 | 52.15109 | 8.21457 | 22963 ft | 471 kts | 41° |
| 2026-05-04 15:37 | 52.17563 | 8.25001 | 22963 ft | 472 kts | 41° |
| 2026-05-04 15:37 | 52.20118 | 8.28351 | 22976 ft | 471 kts | 33° |
| 2026-05-04 15:37 | 52.22923 | 8.31075 | 22974 ft | 469 kts | 26° |
| 2026-05-04 15:38 | 52.25815 | 8.33562 | 22965 ft | 469 kts | 26° |
| 2026-05-04 15:38 | 52.28697 | 8.36055 | 22964 ft | 469 kts | 26° |
| 2026-05-04 15:38 | 52.31580 | 8.38569 | 22981 ft | 469 kts | 26° |
| 2026-05-04 15:38 | 52.34453 | 8.41089 | 22967 ft | 469 kts | 26° |
| 2026-05-04 15:39 | 52.37327 | 8.43611 | 22972 ft | 468 kts | 26° |
| 2026-05-04 15:39 | 52.40200 | 8.46133 | 22969 ft | 469 kts | 26° |
| 2026-05-04 15:39 | 52.45943 | 8.51173 | 22982 ft | 468 kts | 26° |
| 2026-05-04 15:40 | 52.48820 | 8.53691 | 22981 ft | 468 kts | 25° |
| 2026-05-04 15:40 | 52.51693 | 8.56211 | 22978 ft | 469 kts | 26° |
| 2026-05-04 15:40 | 52.54569 | 8.58745 | 22973 ft | 469 kts | 26° |
| 2026-05-04 15:40 | 52.57440 | 8.61284 | 22980 ft | 469 kts | 26° |
| 2026-05-04 15:41 | 52.60318 | 8.63831 | 22980 ft | 469 kts | 26° |
| 2026-05-04 15:41 | 52.63155 | 8.66344 | 22977 ft | 469 kts | 26° |
| 2026-05-04 15:41 | 52.66064 | 8.68927 | 22980 ft | 469 kts | 26° |
| 2026-05-04 15:41 | 52.68901 | 8.71448 | 23005 ft | 469 kts | 26° |
| 2026-05-04 15:42 | 52.71777 | 8.74007 | 23010 ft | 469 kts | 25° |
| 2026-05-04 15:42 | 52.74652 | 8.76543 | 23005 ft | 468 kts | 23° |
| 2026-05-04 15:42 | 52.77643 | 8.78588 | 23002 ft | 463 kts | 14° |
| 2026-05-04 15:42 | 52.80750 | 8.79883 | 22999 ft | 459 kts | 6° |
| 2026-05-04 15:43 | 52.83903 | 8.80775 | 22994 ft | 458 kts | 6° |
| 2026-05-04 15:43 | 52.87045 | 8.81666 | 22990 ft | 458 kts | 6° |
| 2026-05-04 15:43 | 52.90189 | 8.82557 | 22984 ft | 458 kts | 6° |
| 2026-05-04 15:43 | 52.93329 | 8.83451 | 22988 ft | 458 kts | 6° |
| 2026-05-04 15:44 | 52.96468 | 8.84350 | 22972 ft | 458 kts | 6° |
| 2026-05-04 15:44 | 52.99614 | 8.85256 | 22964 ft | 459 kts | 6° |
| 2026-05-04 15:44 | 53.02759 | 8.86163 | 22961 ft | 459 kts | 6° |
| 2026-05-04 15:44 | 53.05905 | 8.87070 | 22759 ft | 457 kts | 6° |
| 2026-05-04 15:45 | 53.09024 | 8.87972 | 22489 ft | 454 kts | 6° |
| 2026-05-04 15:45 | 53.12122 | 8.88869 | 22223 ft | 451 kts | 6° |
| 2026-05-04 15:45 | 53.15207 | 8.89762 | 21959 ft | 449 kts | 6° |
| 2026-05-04 15:45 | 53.18280 | 8.90652 | 21698 ft | 447 kts | 6° |
| 2026-05-04 15:46 | 53.21334 | 8.91536 | 21441 ft | 444 kts | 6° |
| 2026-05-04 15:46 | 53.24374 | 8.92417 | 21187 ft | 442 kts | 6° |
| 2026-05-04 15:46 | 53.27399 | 8.93297 | 20931 ft | 440 kts | 6° |
| 2026-05-04 15:46 | 53.30410 | 8.94172 | 20684 ft | 437 kts | 6° |
| 2026-05-04 15:47 | 53.33323 | 8.95025 | 20434 ft | 424 kts | 6° |
| 2026-05-04 15:47 | 53.36181 | 8.95869 | 20187 ft | 411 kts | 6° |
| 2026-05-04 15:47 | 53.38958 | 8.96689 | 19933 ft | 399 kts | 6° |
| 2026-05-04 15:47 | 53.41658 | 8.97487 | 19711 ft | 389 kts | 5° |
| 2026-05-04 15:48 | 53.44286 | 8.98261 | 19470 ft | 379 kts | 5° |
| 2026-05-04 15:48 | 53.46852 | 8.99015 | 19229 ft | 370 kts | 5° |
| 2026-05-04 15:48 | 53.51773 | 9.00575 | 18889 ft | 352 kts | 11° |
| 2026-05-04 15:49 | 53.54079 | 9.01951 | 18565 ft | 352 kts | 20° |
| 2026-05-04 15:49 | 53.56229 | 9.03929 | 18210 ft | 353 kts | 30° |
| 2026-05-04 15:49 | 53.58225 | 9.06309 | 17754 ft | 349 kts | 32° |
| 2026-05-04 15:49 | 53.60190 | 9.08671 | 17041 ft | 345 kts | 32° |
| 2026-05-04 15:50 | 53.62138 | 9.10999 | 16370 ft | 341 kts | 32° |
| 2026-05-04 15:50 | 53.64064 | 9.13298 | 15769 ft | 336 kts | 32° |
| 2026-05-04 15:50 | 53.65953 | 9.15559 | 15245 ft | 330 kts | 32° |
| 2026-05-04 15:50 | 53.67797 | 9.17768 | 14783 ft | 322 kts | 32° |
| 2026-05-04 15:51 | 53.69602 | 9.19936 | 14310 ft | 316 kts | 32° |
| 2026-05-04 15:51 | 53.71376 | 9.22069 | 13846 ft | 310 kts | 32° |
| 2026-05-04 15:51 | 53.73120 | 9.24171 | 13326 ft | 305 kts | 32° |
| 2026-05-04 15:51 | 53.74830 | 9.26234 | 12851 ft | 299 kts | 32° |
| 2026-05-04 15:52 | 53.76510 | 9.28257 | 12360 ft | 294 kts | 32° |
| 2026-05-04 15:52 | 53.78153 | 9.30253 | 11886 ft | 292 kts | 35° |
| 2026-05-04 15:52 | 53.79657 | 9.32636 | 11375 ft | 300 kts | 47° |
| 2026-05-04 15:52 | 53.80890 | 9.35532 | 10874 ft | 307 kts | 59° |
| 2026-05-04 15:53 | 53.81760 | 9.38782 | 10758 ft | 310 kts | 71° |
| 2026-05-04 15:53 | 53.82293 | 9.42328 | 10612 ft | 312 kts | 79° |
| 2026-05-04 15:53 | 53.82726 | 9.45916 | 10429 ft | 311 kts | 79° |
| 2026-05-04 15:53 | 53.83159 | 9.49515 | 10270 ft | 312 kts | 79° |
| 2026-05-04 15:54 | 53.83592 | 9.53100 | 10098 ft | 311 kts | 79° |
| 2026-05-04 15:54 | 53.84026 | 9.56691 | 9930 ft | 310 kts | 79° |
| 2026-05-04 15:54 | 53.84453 | 9.60258 | 9747 ft | 309 kts | 79° |
| 2026-05-04 15:54 | 53.84878 | 9.63815 | 9577 ft | 308 kts | 79° |
| 2026-05-04 15:55 | 53.85302 | 9.67365 | 9412 ft | 307 kts | 79° |
| 2026-05-04 15:55 | 53.85724 | 9.70906 | 9252 ft | 306 kts | 79° |
| 2026-05-04 15:55 | 53.86137 | 9.74361 | 9094 ft | 290 kts | 79° |
| 2026-05-04 15:55 | 53.86527 | 9.77638 | 8753 ft | 278 kts | 79° |
| 2026-05-04 15:56 | 53.86667 | 9.80815 | 8525 ft | 267 kts | 96° |
| 2026-05-04 15:56 | 53.86463 | 9.83966 | 8076 ft | 269 kts | 98° |
| 2026-05-04 15:56 | 53.86243 | 9.87105 | 7565 ft | 268 kts | 98° |
| 2026-05-04 15:56 | 53.86022 | 9.90230 | 7114 ft | 265 kts | 98° |
| 2026-05-04 15:57 | 53.85806 | 9.93306 | 6871 ft | 262 kts | 98° |
| 2026-05-04 15:57 | 53.85589 | 9.96372 | 6631 ft | 262 kts | 98° |
| 2026-05-04 15:57 | 53.85374 | 9.99420 | 6385 ft | 260 kts | 97° |
| 2026-05-04 15:57 | 53.85157 | 10.02451 | 6103 ft | 259 kts | 98° |
| 2026-05-04 15:58 | 53.84939 | 10.05470 | 5843 ft | 257 kts | 98° |
| 2026-05-04 15:58 | 53.84720 | 10.08476 | 5587 ft | 257 kts | 98° |
| 2026-05-04 15:58 | 53.84502 | 10.11476 | 5331 ft | 256 kts | 97° |
| 2026-05-04 15:58 | 53.84288 | 10.14454 | 5081 ft | 255 kts | 97° |
| 2026-05-04 15:59 | 53.84235 | 10.17459 | 4755 ft | 258 kts | 87° |
| 2026-05-04 15:59 | 53.84043 | 10.20482 | 4349 ft | 260 kts | 112° |
| 2026-05-04 15:59 | 53.83213 | 10.23169 | 4001 ft | 254 kts | 123° |
| 2026-05-04 15:59 | 53.82303 | 10.25629 | 3700 ft | 246 kts | 124° |
| 2026-05-04 16:00 | 53.81204 | 10.27770 | 3473 ft | 238 kts | 150° |
| 2026-05-04 16:00 | 53.79690 | 10.28673 | 3240 ft | 230 kts | 179° |
| 2026-05-04 16:00 | 53.78141 | 10.28339 | 3063 ft | 223 kts | 205° |
| 2026-05-04 16:00 | 53.76848 | 10.26936 | 2983 ft | 222 kts | 229° |
| 2026-05-04 16:01 | 53.75865 | 10.24972 | 2983 ft | 211 kts | 233° |
| 2026-05-04 16:01 | 53.74960 | 10.23115 | 2982 ft | 198 kts | 233° |
| 2026-05-04 16:01 | 53.74111 | 10.21376 | 2983 ft | 185 kts | 234° |
| 2026-05-04 16:01 | 53.73317 | 10.19752 | 2970 ft | 176 kts | 233° |
| 2026-05-04 16:02 | 53.72552 | 10.18188 | 2795 ft | 170 kts | 233° |
| 2026-05-04 16:02 | 53.71808 | 10.16668 | 2592 ft | 168 kts | 232° |
| 2026-05-04 16:02 | 53.70443 | 10.13789 | 2134 ft | 150 kts | 236° |
| 2026-05-04 16:03 | 53.69797 | 10.12416 | 1807 ft | 151 kts | 236° |
| 2026-05-04 16:03 | 53.69164 | 10.11023 | 1586 ft | 146 kts | 236° |
| 2026-05-04 16:03 | 53.68539 | 10.09688 | 1392 ft | 149 kts | 236° |
| 2026-05-04 16:03 | 53.67844 | 10.08410 | 1214 ft | 145 kts | 233° |
| 2026-05-04 16:04 | 53.67146 | 10.07174 | 1049 ft | 149 kts | 228° |
| 2026-05-04 16:04 | 53.65770 | 10.04515 | 651 ft | 150 kts | 236° |
| 2026-05-04 16:04 | 53.65169 | 10.03124 | 452 ft | 144 kts | 238° |
| 2026-05-04 16:05 | 53.64533 | 10.01805 | 357 ft | 146 kts | 233° |
| 2026-05-04 16:05 | 53.63875 | 10.00544 | 167 ft | 139 kts | 236° |
| 2026-05-04 16:05 | 53.62612 | 9.97936 | 305 ft | 159 kts | 233° |
| 2026-05-04 16:06 | 53.61864 | 9.96411 | 1036 ft | 177 kts | 234° |
| 2026-05-04 16:06 | 53.59691 | 9.92219 | 2938 ft | 186 kts | 230° |
| 2026-05-04 16:07 | 53.58565 | 9.89769 | 3000 ft | 202 kts | 244° |
| 2026-05-04 16:07 | 53.60255 | 9.83914 | 3004 ft | 205 kts | 303° |
| 2026-05-04 16:08 | 53.60950 | 9.81868 | 3007 ft | 205 kts | 303° |
| 2026-05-04 16:08 | 53.64828 | 9.81921 | 4242 ft | 230 kts | 47° |
| 2026-05-04 16:09 | 53.66719 | 9.86394 | 4952 ft | 235 kts | 54° |
| 2026-05-04 16:09 | 53.68291 | 9.90159 | 4982 ft | 234 kts | 52° |
| 2026-05-04 16:10 | 53.70222 | 9.94559 | 4987 ft | 234 kts | 51° |
| 2026-05-04 16:11 | 53.73131 | 10.01203 | 4963 ft | 244 kts | 51° |
| 2026-05-04 16:11 | 53.74145 | 10.03520 | 4648 ft | 246 kts | 51° |
| 2026-05-04 16:12 | 53.77169 | 10.10421 | 3968 ft | 234 kts | 51° |
| 2026-05-04 16:12 | 53.79468 | 10.17380 | 3981 ft | 226 kts | 74° |
| 2026-05-04 16:13 | 53.78617 | 10.22165 | 3991 ft | 220 kts | 142° |
| 2026-05-04 16:13 | 53.75845 | 10.23390 | 3673 ft | 209 kts | 199° |
| 2026-05-04 16:14 | 53.73683 | 10.20522 | 3165 ft | 196 kts | 234° |
| 2026-05-04 16:14 | 53.72018 | 10.17100 | 2680 ft | 180 kts | 233° |
| 2026-05-04 16:15 | 53.69863 | 10.12704 | 2000 ft | 149 kts | 233° |
| 2026-05-04 16:16 | 53.68579 | 10.10110 | 1574 ft | 145 kts | 233° |
| 2026-05-04 16:16 | 53.66659 | 10.06159 | 1019 ft | 145 kts | 238° |
| 2026-05-04 16:17 | 53.65361 | 10.03513 | 559 ft | 145 kts | 233° |
| 2026-05-04 16:18 | 53.63386 | 9.99548 | 50 ft | 147 kts | 235° |
| 2026-05-04 16:18 | 53.62810 | 9.98350 | 42 ft | 114 kts | 231° |
| 2026-05-04 16:19 | 53.62203 | 9.97429 | 44 ft | 21 kts | 128° |
| 2026-05-04 16:19 | 53.62184 | 9.97541 | 47 ft | 4 kts | 85° |
| 2026-05-04 16:20 | 53.62470 | 9.98112 | 47 ft | 0 kts | 52° |
| 2026-05-04 16:20 | 53.62524 | 9.98225 | 47 ft | 19 kts | 49° |
| 2026-05-04 16:21 | 53.62856 | 9.98877 | 47 ft | 23 kts | 49° |
| 2026-05-04 16:22 | 53.63051 | 9.99296 | 47 ft | 23 kts | 54° |
| 2026-05-04 16:22 | 53.63366 | 9.99938 | 48 ft | 23 kts | 50° |
| 2026-05-04 16:23 | 53.63172 | 10.00246 | 47 ft | 12 kts | 130° |
| 2026-05-04 16:24 | 53.63168 | 10.00359 | 48 ft | 0 kts | 85° |